Time;durP1;ratioP1;P1;durP2;ratioP2;P2;SDS_P1;SDS_P2;PMS_P1;PMS_P2;Temp;Humidity;BMP_temperature;BMP_pressure;BME280_temperature;BME280_humidity;BME280_pressure;Samples;Min_cycle;Max_cycle;Signal;HPM_P1;HPM_P2
2021/01/21 00:01:49;;;;;;;38.85;22.95;;;4.10;90.50;;;;;;5129710;27;20653;-65
2021/01/21 00:04:14;;;;;;;38.00;23.40;;;4.10;90.40;;;;;;5103721;27;20039;-66
2021/01/21 00:06:40;;;;;;;;;;;4.20;90.20;;;;;;5128633;27;20486;-66
2021/01/21 00:09:07;;;;;;;39.53;25.23;;;4.20;90.10;;;;;;5111231;27;19911;-65
2021/01/21 00:11:33;;;;;;;33.90;21.15;;;4.00;90.40;;;;;;5128936;27;20031;-66
2021/01/21 00:13:58;;;;;;;;;;;4.00;90.50;;;;;;5129255;27;20046;-66
2021/01/21 00:16:24;;;;;;;40.72;24.35;;;4.00;90.60;;;;;;5126430;27;20303;-66
2021/01/21 00:18:49;;;;;;;;;;;4.00;90.40;;;;;;5128614;27;20067;-66
2021/01/21 00:21:15;;;;;;;33.55;19.20;;;4.10;90.20;;;;;;5129044;27;20410;-68
2021/01/21 00:23:40;;;;;;;;;;;4.10;90.20;;;;;;5128231;27;20126;-66
2021/01/21 00:26:06;;;;;;;35.55;20.23;;;4.00;90.40;;;;;;5128838;27;20337;-65
2021/01/21 00:28:32;;;;;;;34.17;21.30;;;4.00;90.40;;;;;;5128958;27;20082;-66
2021/01/21 00:30:57;;;;;;;;;;;4.00;90.30;;;;;;5107594;27;20140;-67
2021/01/21 00:33:23;;;;;;;30.88;19.35;;;3.90;90.40;;;;;;5128412;27;19922;-66
2021/01/21 00:35:48;;;;;;;31.35;18.70;;;4.00;90.30;;;;;;5125128;27;20399;-66
2021/01/21 00:38:14;;;;;;;;;;;4.00;90.20;;;;;;5126119;27;20079;-66
2021/01/21 00:40:39;;;;;;;31.45;19.55;;;4.00;90.30;;;;;;5129078;27;20303;-66
2021/01/21 00:43:05;;;;;;;;;;;4.00;90.30;;;;;;5127131;27;20572;-66
2021/01/21 00:45:31;;;;;;;36.28;21.98;;;3.90;90.30;;;;;;5110544;27;20395;-66
2021/01/21 00:47:56;;;;;;;;;;;3.90;90.40;;;;;;5128328;27;20130;-66
2021/01/21 00:50:22;;;;;;;37.83;20.80;;;3.80;90.60;;;;;;5128250;27;20402;-66
2021/01/21 00:52:47;;;;;;;;;;;3.90;90.50;;;;;;5128489;27;20043;-66
2021/01/21 00:55:13;;;;;;;38.92;21.98;;;3.90;90.30;;;;;;5127986;27;19927;-66
2021/01/21 00:57:39;;;;;;;;;;;4.00;90.20;;;;;;5127419;27;20031;-66
2021/01/21 01:00:11;;;;;;;38.28;21.98;;;3.90;90.10;;;;;;5125782;27;19918;-67
2021/01/21 01:02:36;;;;;;;38.40;22.52;;;3.90;90.20;;;;;;5125278;27;20038;-66
2021/01/21 01:05:04;;;;;;;;;;;4.00;90.10;;;;;;5126214;27;20043;-66
2021/01/21 01:07:30;;;;;;;41.05;22.77;;;3.90;90.20;;;;;;5122966;27;19968;-65
2021/01/21 01:09:55;;;;;;;;;;;3.90;90.10;;;;;;5120111;27;20323;-64
2021/01/21 01:12:21;;;;;;;39.08;23.25;;;4.10;89.80;;;;;;5121716;27;19922;-66
2021/01/21 01:14:46;;;;;;;36.35;22.38;;;4.10;89.40;;;;;;5106022;27;20027;-66
2021/01/21 01:17:12;;;;;;;;;;;4.10;89.20;;;;;;5128245;27;20069;-66
2021/01/21 01:19:37;;;;;;;40.72;21.95;;;4.00;89.80;;;;;;5123469;27;19911;-65
2021/01/21 01:22:03;;;;;;;;;;;4.00;89.60;;;;;;5128626;27;20035;-65
2021/01/21 01:24:28;;;;;;;38.67;23.10;;;4.10;89.30;;;;;;5122974;27;19918;-66
2021/01/21 01:26:54;;;;;;;;;;;4.10;89.10;;;;;;5124453;27;20028;-66
2021/01/21 01:29:19;;;;;;;43.40;25.67;;;4.00;89.30;;;;;;5127860;27;20455;-65
2021/01/21 01:31:45;;;;;;;;;;;4.10;89.60;;;;;;5119601;27;20043;-66
2021/01/21 01:34:11;;;;;;;46.58;24.52;;;4.00;89.30;;;;;;5126015;27;19912;-66
2021/01/21 01:36:36;;;;;;;;;;;4.00;89.40;;;;;;5128471;27;20372;-66
2021/01/21 01:39:02;;;;;;;49.35;25.65;;;4.00;89.20;;;;;;5125909;27;19915;-67
2021/01/21 01:41:29;;;;;;;41.47;25.10;;;4.00;89.20;;;;;;5127687;27;20031;-65
2021/01/21 01:43:55;;;;;;;39.92;23.90;;;4.00;89.50;;;;;;5127077;27;20034;-66
2021/01/21 01:46:21;;;;;;;;;;;3.90;89.50;;;;;;5128173;27;20275;-66
2021/01/21 01:48:46;;;;;;;47.60;25.63;;;3.90;89.40;;;;;;5127199;27;19915;-66
2021/01/21 01:51:12;;;;;;;;;;;3.90;89.60;;;;;;5109606;27;20053;-65
2021/01/21 01:53:38;;;;;;;41.40;25.23;;;3.90;89.60;;;;;;5126838;27;19911;-65
2021/01/21 01:56:03;;;;;;;;;;;3.80;89.80;;;;;;5127938;27;20583;-65
2021/01/21 01:58:32;;;;;;;41.40;23.60;;;3.80;89.60;;;;;;5108839;27;19966;-67
2021/01/21 02:00:59;;;;;;;40.20;25.10;;;4.00;88.90;;;;;;5126922;27;20776;-66
2021/01/21 02:03:25;;;;;;;45.67;24.35;;;4.00;88.70;;;;;;5123674;27;20116;-66
2021/01/21 02:05:52;;;;;;;;;;;4.00;88.80;;;;;;5108709;27;20047;-67
2021/01/21 02:08:22;;;;;;;36.97;22.53;;;4.10;88.20;;;;;;5108539;27;20323;-65
2021/01/21 02:10:47;;;;;;;41.05;23.38;;;4.00;88.60;;;;;;5126719;27;20376;-68
2021/01/21 02:13:16;;;;;;;;;;;4.00;88.50;;;;;;5122835;27;20561;-67
2021/01/21 02:15:53;;;;;;;34.70;21.50;;;4.00;88.60;;;;;;5126780;27;19919;-67
2021/01/21 02:19:07;;;;;;;40.55;22.77;;;3.90;88.70;;;;;;5124035;27;20498;-66
2021/01/21 02:21:58;;;;;;;37.40;22.33;;;3.90;88.70;;;;;;5116215;27;20331;-67
2021/01/21 02:24:42;;;;;;;38.50;22.15;;;3.90;88.90;;;;;;5126649;27;20156;-67
2021/01/21 02:27:11;;;;;;;37.22;21.83;;;3.80;89.10;;;;;;5125841;27;20047;-66
2021/01/21 02:29:39;;;;;;;46.22;23.52;;;3.90;88.80;;;;;;5126163;27;20088;-68
2021/01/21 02:32:08;;;;;;;44.97;23.60;;;3.90;88.10;;;;;;5107735;27;20093;-66
2021/01/21 02:34:56;;;;;;;44.38;25.17;;;4.00;87.80;;;;;;5125561;27;20043;-66
2021/01/21 02:37:26;;;;;;;45.65;25.83;;;4.00;87.70;;;;;;5126344;27;20737;-66
2021/01/21 02:39:54;;;;;;;42.78;26.77;;;3.90;88.30;;;;;;5126170;27;20441;-67
2021/01/21 02:42:20;;;;;;;42.15;25.05;;;3.70;88.90;;;;;;5107913;27;20130;-67
2021/01/21 02:44:47;;;;;;;;;;;4.00;88.20;;;;;;5126724;27;20085;-68
2021/01/21 02:47:14;;;;;;;47.90;24.27;;;4.10;87.20;;;;;;5126206;27;19931;-67
2021/01/21 02:49:40;;;;;;;38.45;23.35;;;4.00;87.30;;;;;;5126258;27;20046;-66
2021/01/21 02:52:19;;;;;;;34.67;21.17;;;4.00;87.20;;;;;;5125949;27;20998;-66
2021/01/21 02:54:53;;;;;;;34.58;21.60;;;4.00;87.00;;;;;;5126258;27;20052;-66
2021/01/21 02:57:32;;;;;;;37.25;19.42;;;4.00;86.70;;;;;;5122302;27;20032;-67
2021/01/21 03:00:05;;;;;;;33.00;19.77;;;4.20;86.30;;;;;;5125967;27;20027;-67
2021/01/21 03:02:36;;;;;;;35.55;20.73;;;4.10;86.30;;;;;;5125644;27;20503;-66
2021/01/21 03:05:02;;;;;;;40.38;21.73;;;3.90;86.90;;;;;;5125674;27;20039;-67
2021/01/21 03:07:29;;;;;;;32.10;20.00;;;3.90;86.90;;;;;;5122075;27;20027;-67
2021/01/21 03:09:54;;;;;;;31.73;19.77;;;3.80;87.30;;;;;;5126171;27;20043;-67
2021/01/21 03:12:27;;;;;;;;;;;3.90;87.10;;;;;;5124324;27;20037;-67
2021/01/21 03:14:55;;;;;;;30.13;17.63;;;3.80;87.30;;;;;;5127345;27;19915;-66
2021/01/21 03:17:26;;;;;;;32.97;19.33;;;3.80;87.20;;;;;;5129473;27;20053;-66
2021/01/21 03:19:52;;;;;;;33.15;17.48;;;3.80;87.30;;;;;;5109612;27;20598;-66
2021/01/21 03:22:18;;;;;;;;;;;3.80;87.10;;;;;;5130701;27;20042;-67
2021/01/21 03:24:43;;;;;;;25.42;15.52;;;3.80;86.70;;;;;;5129701;27;20307;-67
2021/01/21 03:27:09;;;;;;;26.90;16.50;;;3.80;86.40;;;;;;5125486;27;20097;-67
2021/01/21 03:29:35;;;;;;;;;;;3.80;86.70;;;;;;5110104;28;20048;-66
2021/01/21 03:32:01;;;;;;;32.80;18.58;;;3.80;87.00;;;;;;5113020;27;19918;-67
2021/01/21 03:34:27;;;;;;;;;;;3.80;87.00;;;;;;5113714;27;20049;-67
2021/01/21 03:36:53;;;;;;;41.10;24.10;;;3.90;86.60;;;;;;5113053;27;19918;-66
2021/01/21 03:39:18;;;;;;;;;;;3.90;86.40;;;;;;5112101;27;20411;-67
2021/01/21 03:41:44;;;;;;;32.90;19.40;;;4.00;86.40;;;;;;5117186;27;20386;-67
2021/01/21 03:44:09;;;;;;;;;;;4.20;85.30;;;;;;5112645;27;20058;-65
2021/01/21 03:46:35;;;;;;;31.25;18.35;;;4.10;85.30;;;;;;5110622;27;19916;-66
2021/01/21 03:49:01;;;;;;;;;;;4.10;85.10;;;;;;5115642;27;20035;-65
2021/01/21 03:51:27;;;;;;;38.78;20.48;;;3.90;85.70;;;;;;5111736;27;19938;-66
2021/01/21 03:53:53;;;;;;;29.33;18.00;;;3.70;86.50;;;;;;5112210;27;20399;-66
2021/01/21 03:56:18;;;;;;;;;;;3.60;87.20;;;;;;5117913;27;20032;-66
2021/01/21 03:58:44;;;;;;;32.70;19.38;;;3.70;86.90;;;;;;5109887;27;19922;-66
2021/01/21 04:01:10;;;;;;;;;;;3.60;87.20;;;;;;5090591;28;20036;-67
2021/01/21 04:03:35;;;;;;;32.90;17.30;;;3.70;86.80;;;;;;5110617;27;19927;-66
2021/01/21 04:06:01;;;;;;;;;;;3.90;86.00;;;;;;5111124;27;20643;-66
2021/01/21 04:08:27;;;;;;;27.55;15.57;;;3.80;86.00;;;;;;5110889;27;19920;-66
2021/01/21 04:10:53;;;;;;;;;;;3.90;85.20;;;;;;5093482;27;20176;-66
2021/01/21 04:13:19;;;;;;;29.83;16.95;;;3.80;85.60;;;;;;5110756;27;20022;-66
2021/01/21 04:15:46;;;;;;;;;;;3.90;85.20;;;;;;5092574;27;20039;-67
2021/01/21 04:18:12;;;;;;;37.60;18.63;;;3.90;85.20;;;;;;5118389;27;20509;-67
2021/01/21 04:20:37;;;;;;;;;;;3.80;85.60;;;;;;5116123;27;20039;-67
2021/01/21 04:23:03;;;;;;;34.17;19.75;;;3.80;85.60;;;;;;5110710;27;20020;-67
2021/01/21 04:25:28;;;;;;;;;;;3.90;85.10;;;;;;5110406;27;20518;-67
2021/01/21 04:27:54;;;;;;;29.33;17.75;;;3.80;85.30;;;;;;5120447;27;19938;-67
2021/01/21 04:30:20;;;;;;;;;;;3.80;85.70;;;;;;5110656;27;20039;-66
2021/01/21 04:32:45;;;;;;;34.60;19.02;;;3.80;85.60;;;;;;5128755;27;19977;-67
2021/01/21 04:35:11;;;;;;;;;;;3.70;86.30;;;;;;5129719;27;20036;-66
2021/01/21 04:37:37;;;;;;;35.85;19.77;;;3.60;86.30;;;;;;5126095;27;19915;-67
2021/01/21 04:40:03;;;;;;;;;;;3.70;86.00;;;;;;5127293;27;20046;-66
2021/01/21 04:42:29;;;;;;;36.78;19.10;;;3.70;86.00;;;;;;5127427;27;19911;-67
2021/01/21 04:44:54;;;;;;;;;;;3.60;85.90;;;;;;5126170;27;20064;-66
2021/01/21 04:47:21;;;;;;;31.33;19.55;;;3.60;86.30;;;;;;5127619;27;19937;-66
2021/01/21 04:49:48;;;;;;;34.47;20.20;;;3.50;86.60;;;;;;5128689;27;20638;-67
2021/01/21 04:52:15;;;;;;;34.28;19.73;;;3.40;87.20;;;;;;5128344;27;20038;-67
2021/01/21 04:54:51;;;;;;;32.05;19.75;;;3.40;87.20;;;;;;5128808;27;20037;-66
2021/01/21 04:57:23;;;;;;;32.10;20.13;;;3.70;85.70;;;;;;5127791;27;20054;-67
2021/01/21 04:59:50;;;;;;;36.28;22.05;;;3.70;85.40;;;;;;5127650;27;20031;-66
2021/01/21 05:02:17;;;;;;;33.38;19.95;;;3.50;85.90;;;;;;5128504;27;20067;-67
2021/01/21 05:04:44;;;;;;;37.45;21.13;;;3.40;86.30;;;;;;5127853;27;20067;-67
2021/01/21 05:07:09;;;;;;;37.97;19.63;;;3.40;86.80;;;;;;5127842;27;20050;-66
2021/01/21 05:09:36;;;;;;;;;;;3.30;87.00;;;;;;5128693;27;20031;-65
2021/01/21 05:12:02;;;;;;;48.63;25.30;;;3.30;87.20;;;;;;5128187;27;19941;-66
2021/01/21 05:14:27;;;;;;;;;;;3.40;87.30;;;;;;5128518;27;20426;-66
2021/01/21 05:16:53;;;;;;;38.78;20.90;;;3.30;87.10;;;;;;5127115;27;20395;-67
2021/01/21 05:19:19;;;;;;;;;;;3.60;86.40;;;;;;5109749;27;20118;-67
2021/01/21 05:21:44;;;;;;;34.15;19.05;;;3.50;85.70;;;;;;5125290;27;20034;-66
2021/01/21 05:24:10;;;;;;;;;;;3.50;86.10;;;;;;5128107;27;20138;-66
2021/01/21 05:26:42;;;;;;;31.95;18.95;;;3.50;86.30;;;;;;5123953;27;20369;-66
2021/01/21 05:29:10;;;;;;;41.60;21.70;;;3.40;86.40;;;;;;5106909;28;20595;-66
2021/01/21 05:31:37;;;;;;;41.58;23.05;;;3.40;86.40;;;;;;5106800;28;20606;-66
2021/01/21 05:34:07;;;;;;;34.78;20.63;;;3.40;86.40;;;;;;5107296;28;20035;-66
2021/01/21 05:36:41;;;;;;;39.40;20.27;;;3.40;87.00;;;;;;5107021;28;20519;-66
2021/01/21 05:39:08;;;;;;;39.75;19.60;;;3.30;87.20;;;;;;5106697;28;20073;-65
2021/01/21 05:41:37;;;;;;;40.05;22.13;;;3.40;86.20;;;;;;5104598;28;20137;-65
2021/01/21 05:44:05;;;;;;;28.30;17.77;;;3.50;85.90;;;;;;5106631;28;20301;-67
2021/01/21 05:46:33;;;;;;;31.05;15.25;;;3.50;85.70;;;;;;5105670;28;20035;-67
2021/01/21 05:48:59;;;;;;;21.35;12.25;;;3.60;84.60;;;;;;5106294;28;20484;-64
2021/01/21 05:51:24;;;;;;;;;;;3.70;84.00;;;;;;5107246;28;20039;-67
2021/01/21 05:53:54;;;;;;;19.67;11.40;;;3.80;83.60;;;;;;5106282;28;19970;-66
2021/01/21 05:56:25;;;;;;;20.58;11.18;;;3.90;82.90;;;;;;5087931;28;20492;-66
2021/01/21 05:58:53;;;;;;;21.40;12.00;;;3.90;82.60;;;;;;5102614;28;20058;-65
2021/01/21 06:01:21;;;;;;;20.35;11.70;;;4.00;82.10;;;;;;5085598;28;20046;-67
2021/01/21 06:03:48;;;;;;;30.20;16.85;;;4.10;81.40;;;;;;5106078;28;20046;-66
2021/01/21 06:06:14;;;;;;;26.77;16.08;;;4.30;81.20;;;;;;5106103;28;20033;-66
2021/01/21 06:08:42;;;;;;;25.90;15.52;;;4.30;81.20;;;;;;5106349;28;20458;-67
2021/01/21 06:11:08;;;;;;;28.70;17.73;;;4.20;81.10;;;;;;5106194;27;20039;-66
2021/01/21 06:13:38;;;;;;;26.48;17.05;;;4.00;82.70;;;;;;5106347;28;20042;-66
2021/01/21 06:16:06;;;;;;;31.27;18.15;;;3.90;82.80;;;;;;5105274;28;20043;-66
2021/01/21 06:18:33;;;;;;;33.17;16.58;;;3.90;83.00;;;;;;5106049;28;20050;-67
2021/01/21 06:21:03;;;;;;;55.20;28.90;;;3.80;83.40;;;;;;5106018;28;20039;-66
2021/01/21 06:23:32;;;;;;;43.65;22.75;;;3.80;83.70;;;;;;5106507;28;20142;-66
2021/01/21 06:25:58;;;;;;;33.60;16.88;;;3.70;84.00;;;;;;5102013;28;20116;-66
2021/01/21 06:28:26;;;;;;;26.48;14.00;;;3.70;83.60;;;;;;5110133;27;20075;-67
2021/01/21 06:30:59;;;;;;;27.00;15.60;;;3.80;83.40;;;;;;5112020;27;20042;-67
2021/01/21 06:33:35;;;;;;;42.45;31.17;;;3.80;83.20;;;;;;5108265;27;20078;-67
2021/01/21 06:36:07;;;;;;;23.42;13.38;;;3.80;83.10;;;;;;5109624;27;20066;-67
2021/01/21 06:38:42;;;;;;;18.48;11.23;;;3.90;81.90;;;;;;5111317;27;20142;-67
2021/01/21 06:41:16;;;;;;;23.73;12.45;;;3.80;81.80;;;;;;5108741;27;20114;-66
2021/01/21 06:43:42;;;;;;;21.35;12.38;;;3.80;81.90;;;;;;5112862;27;20027;-67
2021/01/21 06:46:08;;;;;;;;;;;3.80;81.90;;;;;;5108919;27;20037;-67
2021/01/21 06:48:33;;;;;;;27.25;13.15;;;3.80;82.30;;;;;;5108041;27;19946;-66
2021/01/21 06:51:06;;;;;;;28.02;12.25;;;3.80;82.30;;;;;;5109817;27;20040;-67
2021/01/21 06:53:33;;;;;;;20.52;11.38;;;3.80;81.70;;;;;;5108328;27;20078;-67
2021/01/21 06:55:59;;;;;;;22.95;11.88;;;3.80;82.10;;;;;;5108430;28;20788;-67
2021/01/21 06:58:43;;;;;;;;;;;3.90;81.60;;;;;;5107635;27;20570;-67
2021/01/21 07:01:31;;;;;;;21.90;11.80;;;3.80;82.10;;;;;;5111284;27;20014;-67
2021/01/21 07:04:18;;;;;;;20.88;12.25;;;3.80;82.50;;;;;;5105143;28;20050;-65
2021/01/21 07:06:50;;;;;;;24.42;14.98;;;3.70;82.70;;;;;;5105775;27;20660;-67
2021/01/21 07:09:26;;;;;;;37.63;21.88;;;3.70;82.80;;;;;;5107465;28;20105;-67
2021/01/21 07:12:00;;;;;;;19.50;13.15;;;3.80;82.60;;;;;;5110074;28;20050;-65
2021/01/21 07:14:28;;;;;;;43.67;26.77;;;3.80;82.90;;;;;;5086926;28;20040;-66
2021/01/21 07:16:56;;;;;;;26.08;15.45;;;3.70;82.80;;;;;;5109768;28;20023;-66
2021/01/21 07:19:32;;;;;;;36.88;19.75;;;3.70;82.90;;;;;;5087330;28;20139;-66
2021/01/21 07:21:58;;;;;;;33.80;21.08;;;3.70;83.10;;;;;;5107927;28;20061;-66
2021/01/21 07:24:26;;;;;;;;;;;3.70;83.00;;;;;;5107758;28;20044;-66
2021/01/21 07:26:53;;;;;;;22.10;12.68;;;3.70;82.70;;;;;;5107707;28;20144;-66
2021/01/21 07:29:20;;;;;;;20.65;12.45;;;3.80;82.60;;;;;;5086641;28;20415;-67
2021/01/21 07:31:51;;;;;;;19.90;12.02;;;3.80;82.50;;;;;;5104933;27;20050;-67
2021/01/21 07:34:24;;;;;;;17.50;10.70;;;3.80;83.20;;;;;;5105251;28;20052;-66
2021/01/21 07:37:12;;;;;;;19.02;11.43;;;3.90;82.60;;;;;;5103488;28;20142;-66
2021/01/21 07:39:56;;;;;;;18.27;10.75;;;3.90;82.50;;;;;;5088600;28;20143;-66
2021/01/21 07:42:33;;;;;;;19.98;10.90;;;4.10;81.00;;;;;;5105590;27;20051;-67
2021/01/21 07:45:17;;;;;;;21.73;9.85;;;4.10;80.70;;;;;;5086232;28;20035;-66
2021/01/21 07:47:47;;;;;;;19.58;9.73;;;4.10;80.30;;;;;;5105073;27;20429;-67
2021/01/21 07:50:21;;;;;;;17.88;9.70;;;4.10;80.20;;;;;;5103086;28;20085;-66
2021/01/21 07:52:48;;;;;;;18.90;9.40;;;4.10;80.20;;;;;;5105567;28;20073;-68
2021/01/21 07:55:14;;;;;;;26.75;13.68;;;4.10;80.60;;;;;;5105247;28;20040;-68
2021/01/21 07:57:40;;;;;;;67.60;35.35;;;4.10;81.20;;;;;;5086344;28;20051;-67
2021/01/21 08:00:10;;;;;;;59.40;34.17;;;4.10;80.60;;;;;;5105503;27;20078;-67
2021/01/21 08:02:43;;;;;;;39.10;22.30;;;4.20;80.70;;;;;;5090847;28;20044;-67
2021/01/21 08:05:09;;;;;;;36.03;23.73;;;4.30;80.30;;;;;;5108739;28;20499;-66
2021/01/21 08:08:03;;;;;;;27.60;18.20;;;4.30;80.00;;;;;;5109114;28;20464;-66
2021/01/21 08:10:33;;;;;;;21.08;12.88;;;4.40;80.10;;;;;;5103574;27;20048;-66
2021/01/21 08:13:01;;;;;;;19.23;10.98;;;4.40;79.20;;;;;;5108146;28;20077;-67
2021/01/21 08:15:29;;;;;;;23.95;12.63;;;4.60;79.00;;;;;;5090607;28;20400;-67
2021/01/21 08:17:56;;;;;;;101.72;46.70;;;4.50;78.90;;;;;;5110349;27;20051;-67
2021/01/21 08:20:23;;;;;;;27.50;13.60;;;4.60;79.10;;;;;;5108807;28;20093;-66
2021/01/21 08:22:52;;;;;;;65.00;45.95;;;4.70;78.90;;;;;;5107357;27;20040;-67
2021/01/21 08:25:17;;;;;;;71.20;40.75;;;4.70;78.80;;;;;;5089924;28;20225;-67
2021/01/21 08:27:44;;;;;;;;;;;4.90;78.80;;;;;;5116697;27;20594;-67
2021/01/21 08:30:17;;;;;;;53.35;23.20;;;5.00;77.60;;;;;;5129167;27;20399;-67
2021/01/21 08:32:44;;;;;;;22.77;11.90;;;5.10;77.60;;;;;;5133344;27;20031;-67
2021/01/21 08:35:16;;;;;;;89.55;38.50;;;5.20;76.50;;;;;;5131139;27;20071;-67
2021/01/21 08:37:43;;;;;;;70.07;38.53;;;5.40;76.30;;;;;;5110358;27;20039;-65
2021/01/21 08:40:10;;;;;;;56.58;30.63;;;5.60;75.40;;;;;;5131315;27;20035;-67
2021/01/21 08:42:36;;;;;;;26.35;15.95;;;5.80;75.10;;;;;;5132461;27;20057;-67
2021/01/21 08:45:03;;;;;;;30.15;15.82;;;6.00;74.20;;;;;;5110615;27;20035;-67
2021/01/21 08:47:46;;;;;;;37.90;26.65;;;6.10;73.10;;;;;;5132123;27;20055;-67
2021/01/21 08:50:13;;;;;;;22.23;13.98;;;6.20;73.30;;;;;;5131104;27;20528;-67
2021/01/21 08:53:00;;;;;;;18.23;10.73;;;6.20;72.60;;;;;;5135093;27;20065;-66
2021/01/21 08:55:35;;;;;;;20.90;10.48;;;6.20;72.20;;;;;;5129044;27;20054;-67
2021/01/21 08:58:04;;;;;;;19.70;10.57;;;6.10;72.70;;;;;;5130114;27;20113;-66
2021/01/21 09:00:32;;;;;;;17.85;10.30;;;6.00;73.00;;;;;;5128115;27;20514;-66
2021/01/21 09:03:00;;;;;;;18.13;10.70;;;6.00;72.80;;;;;;5134120;27;20506;-67
2021/01/21 09:05:28;;;;;;;20.92;11.68;;;6.10;72.80;;;;;;5128656;27;20084;-66
2021/01/21 09:08:08;;;;;;;25.73;11.77;;;6.10;73.20;;;;;;5128488;27;20031;-66
2021/01/21 09:10:38;;;;;;;19.13;11.38;;;6.40;72.80;;;;;;5130253;27;20567;-66
2021/01/21 09:13:03;;;;;;;22.38;10.57;;;6.70;71.80;;;;;;5128758;27;20050;-66
2021/01/21 09:15:29;;;;;;;;;;;7.00;69.90;;;;;;5130597;27;20115;-66
2021/01/21 09:18:05;;;;;;;19.90;11.02;;;7.20;69.20;;;;;;5135196;27;20411;-66
2021/01/21 09:20:32;;;;;;;;;;;7.30;69.00;;;;;;5128700;27;20039;-66
2021/01/21 09:23:20;;;;;;;15.60;9.35;;;7.50;68.00;;;;;;5129828;27;20015;-66
2021/01/21 09:25:47;;;;;;;16.92;9.88;;;7.50;67.40;;;;;;5127281;27;20090;-66
2021/01/21 09:28:13;;;;;;;16.35;9.70;;;7.50;68.20;;;;;;5126585;27;20047;-67
2021/01/21 09:30:39;;;;;;;;;;;7.40;67.60;;;;;;5108553;27;20050;-68
2021/01/21 09:33:05;;;;;;;18.20;11.75;;;7.60;68.50;;;;;;5122819;27;19911;-68
2021/01/21 09:35:30;;;;;;;;;;;7.70;67.90;;;;;;5126921;27;20028;-67
2021/01/21 09:37:58;;;;;;;18.77;11.13;;;7.80;66.10;;;;;;5119594;27;20617;-67
2021/01/21 09:40:26;;;;;;;32.00;17.75;;;7.80;66.50;;;;;;5126239;27;20051;-66
2021/01/21 09:42:54;;;;;;;21.30;11.02;;;7.70;67.70;;;;;;5125553;27;20062;-68
2021/01/21 09:45:21;;;;;;;23.52;12.52;;;7.90;67.30;;;;;;5107469;27;20051;-68
2021/01/21 09:47:47;;;;;;;28.20;15.88;;;8.10;67.00;;;;;;5125951;27;20035;-69
2021/01/21 09:50:13;;;;;;;;;;;8.20;67.40;;;;;;5108318;27;20035;-68
2021/01/21 09:52:39;;;;;;;18.63;9.73;;;8.30;66.30;;;;;;5125796;27;19924;-66
2021/01/21 09:55:05;;;;;;;;;;;8.40;66.20;;;;;;5126902;27;20046;-67
2021/01/21 09:57:31;;;;;;;16.00;9.70;;;8.50;65.30;;;;;;5108108;27;19912;-66
2021/01/21 09:59:57;;;;;;;22.90;10.48;;;8.60;66.00;;;;;;5127104;27;20305;-67
2021/01/21 10:02:23;;;;;;;;;;;8.70;64.80;;;;;;5123502;27;20091;-66
2021/01/21 10:04:49;;;;;;;17.65;9.38;;;8.70;65.40;;;;;;5125745;27;19919;-67
2021/01/21 10:07:15;;;;;;;19.30;10.57;;;8.70;65.00;;;;;;5126607;27;20042;-66
2021/01/21 10:09:40;;;;;;;;;;;8.60;65.10;;;;;;5125028;27;20053;-67
2021/01/21 10:12:07;;;;;;;19.08;8.95;;;8.40;65.80;;;;;;5126118;27;20403;-66
2021/01/21 10:14:33;;;;;;;15.07;8.70;;;8.30;66.70;;;;;;5127216;27;20511;-66
2021/01/21 10:16:59;;;;;;;15.95;9.68;;;8.40;66.90;;;;;;5126790;27;20027;-66
2021/01/21 10:19:25;;;;;;;16.08;9.23;;;8.50;66.70;;;;;;5121061;27;20035;-66
2021/01/21 10:21:51;;;;;;;;;;;8.50;66.90;;;;;;5127308;27;20045;-67
2021/01/21 10:24:16;;;;;;;16.15;9.07;;;8.50;66.80;;;;;;5126138;27;19919;-66
2021/01/21 10:26:42;;;;;;;;;;;8.50;66.90;;;;;;5126245;27;20546;-67
2021/01/21 10:29:08;;;;;;;18.17;9.15;;;8.50;66.80;;;;;;5126701;27;19919;-66
2021/01/21 10:31:35;;;;;;;;;;;8.40;67.00;;;;;;5126772;27;20646;-65
2021/01/21 10:34:01;;;;;;;14.00;8.43;;;8.30;67.80;;;;;;5126787;27;19926;-66
2021/01/21 10:36:27;;;;;;;19.80;9.32;;;8.30;68.90;;;;;;5125524;27;20039;-65
2021/01/21 10:38:52;;;;;;;;;;;8.30;67.80;;;;;;5126469;27;20092;-67
2021/01/21 10:41:18;;;;;;;20.25;10.38;;;8.30;67.80;;;;;;5106398;27;20366;-67
2021/01/21 10:43:43;;;;;;;;;;;8.20;68.40;;;;;;5126019;27;20049;-66
2021/01/21 10:46:09;;;;;;;17.67;9.25;;;8.10;69.30;;;;;;5126653;27;20587;-66
2021/01/21 10:48:34;;;;;;;;;;;8.10;69.70;;;;;;5124158;27;20491;-66
2021/01/21 10:51:00;;;;;;;17.08;8.43;;;8.10;70.10;;;;;;5125856;27;19964;-67
2021/01/21 10:53:26;;;;;;;;;;;8.10;70.30;;;;;;5124886;27;20053;-66
2021/01/21 10:55:51;;;;;;;16.77;9.45;;;8.10;70.40;;;;;;5107571;28;19919;-65
2021/01/21 10:58:17;;;;;;;;;;;8.10;70.70;;;;;;5125877;27;20043;-66
2021/01/21 11:00:47;;;;;;;60.05;34.95;;;8.20;70.80;;;;;;5107875;27;19923;-65
2021/01/21 11:03:16;;;;;;;17.98;10.73;;;8.40;69.30;;;;;;5125083;27;20046;-65
2021/01/21 11:05:43;;;;;;;54.63;33.78;;;8.40;69.00;;;;;;5107539;27;20042;-66
2021/01/21 11:08:10;;;;;;;25.65;17.73;;;8.40;69.40;;;;;;5126387;27;20105;-66
2021/01/21 11:10:37;;;;;;;16.05;10.27;;;8.50;70.00;;;;;;5126349;27;20031;-66
2021/01/21 11:13:03;;;;;;;18.88;8.98;;;8.60;69.40;;;;;;5121354;27;20042;-67
2021/01/21 11:15:29;;;;;;;13.98;7.00;;;8.60;69.60;;;;;;5125125;27;20039;-66
2021/01/21 11:17:55;;;;;;;;;;;8.60;69.70;;;;;;5126633;28;20440;-67
2021/01/21 11:20:21;;;;;;;16.77;7.32;;;8.60;69.60;;;;;;5125713;27;19915;-66
2021/01/21 11:22:47;;;;;;;20.15;7.97;;;8.60;69.10;;;;;;5125458;28;20157;-66
2021/01/21 11:25:13;;;;;;;;;;;8.70;69.60;;;;;;5106538;27;20137;-66
2021/01/21 11:27:39;;;;;;;24.50;13.25;;;8.80;67.20;;;;;;5124384;28;19922;-66
2021/01/21 11:30:08;;;;;;;23.65;12.32;;;8.60;67.40;;;;;;5122504;27;20055;-66
2021/01/21 11:32:34;;;;;;;20.75;11.60;;;8.50;68.00;;;;;;5106125;28;20084;-65
2021/01/21 11:35:00;;;;;;;;;;;8.30;68.90;;;;;;5123995;27;20035;-66
2021/01/21 11:37:26;;;;;;;21.73;12.05;;;8.10;69.40;;;;;;5124005;27;19934;-65
2021/01/21 11:39:52;;;;;;;;;;;7.90;70.30;;;;;;5127810;27;20566;-68
2021/01/21 11:42:37;;;;;;;22.80;13.45;;;7.80;71.10;;;;;;5124508;27;19915;-66
2021/01/21 11:45:05;;;;;;;20.63;11.40;;;7.80;71.00;;;;;;5106446;27;20458;-66
2021/01/21 11:47:32;;;;;;;22.35;12.00;;;7.80;71.40;;;;;;5101561;27;20104;-66
2021/01/21 11:49:58;;;;;;;39.92;24.98;;;7.70;72.70;;;;;;5127652;27;20047;-65
2021/01/21 11:52:23;;;;;;;;;;;7.80;72.30;;;;;;5129906;27;20129;-65
2021/01/21 11:54:49;;;;;;;89.80;46.30;;;7.70;72.60;;;;;;5128165;27;19985;-65
2021/01/21 11:57:14;;;;;;;;;;;7.80;72.70;;;;;;5128462;27;20035;-65
2021/01/21 11:59:40;;;;;;;50.28;30.25;;;7.80;72.20;;;;;;5127759;27;19915;-65
2021/01/21 12:02:05;;;;;;;;;;;8.00;72.30;;;;;;5125999;27;20077;-67
2021/01/21 12:04:31;;;;;;;20.33;9.88;;;8.00;72.10;;;;;;5128195;27;19950;-70
2021/01/21 12:06:57;;;;;;;18.17;9.20;;;8.30;70.60;;;;;;5109860;27;20043;-65
2021/01/21 12:09:23;;;;;;;;;;;8.30;70.30;;;;;;5128546;27;20050;-66
2021/01/21 12:11:48;;;;;;;19.23;9.68;;;8.00;71.50;;;;;;5128072;27;19911;-67
2021/01/21 12:14:14;;;;;;;;;;;8.00;72.10;;;;;;5125162;27;20031;-65
2021/01/21 12:16:40;;;;;;;42.17;21.10;;;7.90;72.20;;;;;;5125551;27;20385;-67
2021/01/21 12:19:05;;;;;;;;;;;7.90;72.60;;;;;;5128455;27;20096;-66
2021/01/21 12:21:34;;;;;;;20.50;8.48;;;8.00;73.00;;;;;;5128977;27;19915;-66
2021/01/21 12:24:00;;;;;;;25.30;11.23;;;8.20;72.30;;;;;;5123508;27;20519;-67
2021/01/21 12:26:27;;;;;;;18.88;9.73;;;8.30;71.90;;;;;;5128658;27;20462;-67
2021/01/21 12:28:53;;;;;;;26.20;15.15;;;8.50;71.10;;;;;;5112152;27;20054;-67
2021/01/21 12:31:18;;;;;;;;;;;8.40;71.40;;;;;;5107740;28;20097;-66
2021/01/21 12:33:44;;;;;;;29.20;16.35;;;8.50;71.50;;;;;;5107150;28;19916;-67
2021/01/21 12:36:09;;;;;;;;;;;8.50;71.70;;;;;;5107522;28;20041;-67
2021/01/21 12:38:35;;;;;;;28.80;14.30;;;8.50;71.90;;;;;;5090119;28;19916;-67
2021/01/21 12:41:00;;;;;;;;;;;8.60;71.80;;;;;;5108437;28;20032;-66
2021/01/21 12:43:26;;;;;;;35.25;18.85;;;8.80;70.90;;;;;;5107915;28;19934;-67
2021/01/21 12:45:51;;;;;;;;;;;8.90;70.10;;;;;;5108572;28;20040;-65
2021/01/21 12:48:18;;;;;;;28.88;13.65;;;8.90;70.60;;;;;;5107379;28;20464;-66
2021/01/21 12:50:44;;;;;;;23.98;13.80;;;8.90;70.60;;;;;;5107752;28;20023;-66
2021/01/21 12:53:09;;;;;;;;;;;9.00;70.10;;;;;;5108360;28;20043;-67
2021/01/21 12:55:35;;;;;;;34.75;20.35;;;9.10;69.70;;;;;;5088955;28;19916;-66
2021/01/21 12:58:01;;;;;;;29.25;15.07;;;9.20;68.90;;;;;;5103745;27;20087;-66
2021/01/21 13:00:27;;;;;;;;;;;9.20;69.50;;;;;;5107658;28;20036;-65
2021/01/21 13:02:52;;;;;;;15.18;9.05;;;9.20;69.50;;;;;;5106734;28;20497;-67
2021/01/21 13:05:18;;;;;;;;;;;9.20;69.60;;;;;;5106877;28;20115;-66
2021/01/21 13:07:44;;;;;;;23.35;12.63;;;9.30;69.80;;;;;;5106234;28;20023;-66
2021/01/21 13:10:10;;;;;;;;;;;9.20;70.10;;;;;;5102607;28;20435;-67